Time,TemperatureF,DewpointF,PressureIn,WindDirection,WindDirectionDegrees,WindSpeedMPH,WindSpeedGustMPH,Humidity,HourlyPrecipIn,Conditions,Clouds,dailyrainin,SoftwareType,DateUTC
2013-01-01 00:13:00,20.8,17.0,30.23,NE,36,0.0,0.0,85,0.00,,---,0.00,VWS V12.07,2013-01-01 06:13:00,
2013-01-01 00:33:00,20.8,17.0,30.23,North,357,0.0,0.0,85,0.00,,---,0.00,VWS V12.07,2013-01-01 06:33:00,
2013-01-01 00:43:00,20.7,16.9,30.23,NE,44,0.0,0.0,85,0.00,,---,0.00,VWS V12.07,2013-01-01 06:43:00,
2013-01-01 00:53:00,20.6,16.8,30.23,NW,318,0.0,0.0,85,0.00,,---,0.00,VWS V12.07,2013-01-01 06:53:00,
2013-01-01 01:03:00,20.5,16.7,30.23,NNE,22,0.0,0.0,85,0.00,,---,0.00,VWS V12.07,2013-01-01 07:03:00,
2013-01-01 01:13:00,20.5,16.7,30.23,NNW,339,0.0,0.0,85,0.00,,---,0.00,VWS V12.07,2013-01-01 07:13:00,
2013-01-01 01:23:00,20.4,16.6,30.24,NE,34,0.0,0.0,85,0.00,,---,0.00,VWS V12.07,2013-01-01 07:23:00,
2013-01-01 01:43:00,20.1,16.0,30.23,North,359,0.0,0.0,84,0.00,,---,0.00,VWS V12.07,2013-01-01 07:43:00,
2013-01-01 01:53:00,20.0,16.2,30.24,NW,321,0.0,0.0,85,0.00,,---,0.00,VWS V12.07,2013-01-01 07:53:00,
2013-01-01 02:13:00,20.0,16.2,30.25,NE,47,0.0,0.0,85,0.00,,---,0.00,VWS V12.07,2013-01-01 08:13:00,
2013-01-01 02:23:00,20.0,16.5,30.25,NW,316,0.0,0.0,86,0.00,,---,0.00,VWS V12.07,2013-01-01 08:23:00,
2013-01-01 02:33:00,20.0,16.2,30.26,NNE,26,0.0,0.0,85,0.00,,---,0.00,VWS V12.07,2013-01-01 08:33:00,
2013-01-01 02:43:00,20.0,16.2,30.25,North,5,0.0,0.0,85,0.00,,---,0.00,VWS V12.07,2013-01-01 08:43:00,
2013-01-01 02:53:00,19.9,16.1,30.26,NNW,336,0.0,0.0,85,0.00,,---,0.00,VWS V12.07,2013-01-01 08:53:00,
2013-01-01 03:03:00,19.8,16.0,30.26,NW,318,0.0,0.0,85,0.00,,---,0.00,VWS V12.07,2013-01-01 09:03:00,
2013-01-01 03:13:00,19.8,15.8,30.25,NNE,13,0.0,0.0,84,0.00,,---,0.00,VWS V12.07,2013-01-01 09:13:00,
2013-01-01 03:23:00,19.6,15.8,30.26,NE,35,0.0,0.0,85,0.00,,---,0.00,VWS V12.07,2013-01-01 09:23:00,
2013-01-01 03:33:00,19.3,15.5,30.26,NE,37,0.0,0.0,85,0.00,,---,0.00,VWS V12.07,2013-01-01 09:33:00,
2013-01-01 03:43:00,19.0,15.2,30.27,NNE,19,0.0,0.0,85,0.00,,---,0.00,VWS V12.07,2013-01-01 09:43:00,
2013-01-01 03:53:00,19.0,15.5,30.26,NE,36,0.0,0.0,86,0.00,,---,0.00,VWS V12.07,2013-01-01 09:53:00,
2013-01-01 04:03:00,19.1,15.6,30.27,NNW,330,0.0,0.0,86,0.00,,---,0.00,VWS V12.07,2013-01-01 10:03:00,
2013-01-01 04:13:00,19.2,15.7,30.28,NNW,342,0.0,0.0,86,0.00,,---,0.00,VWS V12.07,2013-01-01 10:13:00,
2013-01-01 04:23:00,19.0,15.5,30.28,NW,319,0.0,0.0,86,0.00,,---,0.00,VWS V12.07,2013-01-01 10:23:00,
2013-01-01 04:43:00,18.2,14.7,30.27,NW,311,0.0,0.0,86,0.00,,---,0.00,VWS V12.07,2013-01-01 10:43:00,
2013-01-01 04:53:00,17.6,14.1,30.27,NE,34,0.0,0.0,86,0.00,,---,0.00,VWS V12.07,2013-01-01 10:53:00,
2013-01-01 05:13:00,16.8,13.6,30.26,North,349,0.0,0.0,87,0.00,,---,0.00,VWS V12.07,2013-01-01 11:13:00,
2013-01-01 05:23:00,16.5,13.3,30.26,NE,54,0.0,0.0,87,0.00,,---,0.00,VWS V12.07,2013-01-01 11:23:00,
2013-01-01 05:33:00,16.2,13.0,30.26,North,354,0.0,0.0,87,0.00,,---,0.00,VWS V12.07,2013-01-01 11:33:00,
2013-01-01 05:43:00,16.0,12.8,30.26,NNE,20,0.0,0.0,87,0.00,,---,0.00,VWS V12.07,2013-01-01 11:43:00,
2013-01-01 06:33:00,14.7,11.5,30.25,NNE,16,0.0,0.0,87,0.00,,---,0.00,VWS V12.07,2013-01-01 12:33:00,
2013-01-01 06:43:00,14.3,11.4,30.23,NE,41,0.0,0.0,88,0.00,,---,0.00,VWS V12.07,2013-01-01 12:43:00,
2013-01-01 06:53:00,14.3,11.4,30.25,NE,37,0.0,0.0,88,0.00,,---,0.00,VWS V12.07,2013-01-01 12:53:00,
2013-01-01 07:13:00,14.5,11.3,30.30,WNW,298,0.0,0.0,87,0.00,,---,0.00,VWS V12.07,2013-01-01 13:13:00,
2013-01-01 07:23:00,14.4,11.0,30.33,NNE,25,0.0,0.0,86,0.00,,---,0.00,VWS V12.07,2013-01-01 13:23:00,
2013-01-01 07:33:00,14.0,10.9,30.35,WNW,285,0.0,0.0,87,0.00,,---,0.00,VWS V12.07,2013-01-01 13:33:00,
2013-01-01 07:43:00,13.5,10.4,30.37,East,88,0.0,0.0,87,0.00,,---,0.00,VWS V12.07,2013-01-01 13:43:00,
2013-01-01 08:03:00,12.9,10.0,30.34,West,266,0.0,0.0,88,0.00,,---,0.00,VWS V12.07,2013-01-01 14:03:00,
2013-01-01 08:23:00,13.1,10.2,30.33,North,5,0.0,0.0,88,0.00,,---,0.00,VWS V12.07,2013-01-01 14:23:00,
2013-01-01 08:33:00,13.9,11.0,30.33,NNW,339,0.0,0.0,88,0.00,,---,0.00,VWS V12.07,2013-01-01 14:33:00,
2013-01-01 08:43:00,14.4,11.2,30.34,NNE,22,0.0,0.0,87,0.00,,---,0.00,VWS V12.07,2013-01-01 14:43:00,
2013-01-01 08:53:00,14.9,11.2,30.36,NE,41,0.0,0.0,85,0.00,,---,0.00,VWS V12.07,2013-01-01 14:53:00,
2013-01-01 09:03:00,15.4,11.4,30.36,NW,323,0.0,0.0,84,0.00,,---,0.00,VWS V12.07,2013-01-01 15:03:00,
2013-01-01 09:23:00,15.9,11.7,30.37,NW,316,0.0,0.0,83,0.00,,---,0.00,VWS V12.07,2013-01-01 15:23:00,
2013-01-01 09:43:00,16.3,11.8,30.35,NNE,30,0.0,0.0,82,0.00,,---,0.00,VWS V12.07,2013-01-01 15:43:00,
2013-01-01 09:53:00,16.4,11.6,30.36,NNE,32,0.0,0.0,81,0.00,,---,0.00,VWS V12.07,2013-01-01 15:53:00,
2013-01-01 10:03:00,16.9,12.4,30.36,NNE,18,0.0,0.0,82,0.00,,---,0.00,VWS V12.07,2013-01-01 16:03:00,
2013-01-01 13:53:00,20.6,13.0,30.30,North,11,2.0,9.0,72,0.00,,---,0.00,VWS V12.07,2013-01-01 19:53:00,
2013-01-01 15:24:00,20.4,12.8,30.33,NW,312,4.0,6.0,72,0.00,,---,0.00,VWS V12.07,2013-01-01 21:24:00,
2013-01-01 16:14:00,19.8,12.6,30.33,North,352,1.0,4.0,73,0.00,,---,0.00,VWS V12.07,2013-01-01 22:14:00,
2013-01-01 18:54:00,13.3,9.1,30.34,NW,305,0.0,0.0,83,0.00,,---,0.00,VWS V12.07,2013-01-02 00:54:00,
2013-01-01 19:34:00,12.4,8.5,30.33,NW,305,0.0,0.0,84,0.00,,---,0.00,VWS V12.07,2013-01-02 01:34:00,
2013-01-01 21:04:00,10.7,7.6,30.34,WNW,288,0.0,0.0,87,0.00,,---,0.00,VWS V12.07,2013-01-02 03:04:00,